createdAt,value
2017-08-11T00:00:14.723Z,5.67
2017-08-11T00:02:41.451Z,5.50
2017-08-11T00:05:08.240Z,6.03
2017-08-11T00:07:34.955Z,4.93
2017-08-11T00:10:01.688Z,6.70
2017-08-11T00:12:28.421Z,5.60
2017-08-11T00:14:55.130Z,5.53
2017-08-11T00:17:21.904Z,5.10
2017-08-11T00:19:48.628Z,5.70
2017-08-11T00:22:15.372Z,5.43
2017-08-11T00:24:42.088Z,5.30
2017-08-11T00:27:08.845Z,6.00
2017-08-11T00:29:35.583Z,5.80
2017-08-11T00:32:02.326Z,5.40
2017-08-11T00:34:29.059Z,6.90
2017-08-11T00:36:55.771Z,5.50
2017-08-11T00:39:22.495Z,5.13
2017-08-11T00:41:49.209Z,5.40
2017-08-11T00:44:15.923Z,5.63
2017-08-11T00:46:42.631Z,6.00
2017-08-11T00:49:09.403Z,5.30
2017-08-11T00:51:36.122Z,5.67
2017-08-11T00:54:02.863Z,5.50
2017-08-11T00:56:29.585Z,5.23
2017-08-11T00:58:56.294Z,5.57
2017-08-11T01:01:23.005Z,5.67
2017-08-11T01:03:49.739Z,6.27
2017-08-11T01:06:16.536Z,6.60
2017-08-11T01:08:43.258Z,6.13
2017-08-11T01:11:09.983Z,5.40
2017-08-11T01:13:36.712Z,6.50
2017-08-11T01:16:03.434Z,6.53
2017-08-11T01:18:30.191Z,5.77
2017-08-11T01:20:56.930Z,6.73
2017-08-11T01:23:23.637Z,5.77
2017-08-11T01:25:50.379Z,5.93
2017-08-11T01:28:17.100Z,5.37
2017-08-11T01:30:43.825Z,5.70
2017-08-11T01:33:10.567Z,6.27
2017-08-11T01:35:37.294Z,5.93
2017-08-11T01:38:04.002Z,5.43
2017-08-11T01:40:30.744Z,7.00
2017-08-11T01:42:57.455Z,6.20
2017-08-11T01:45:24.170Z,5.97
2017-08-11T01:47:50.907Z,6.77
2017-08-11T01:50:17.640Z,5.70
2017-08-11T01:52:44.364Z,6.47
2017-08-11T01:55:11.119Z,5.90
2017-08-11T01:57:37.864Z,6.10
2017-08-11T02:00:04.610Z,6.23
2017-08-11T02:02:31.373Z,5.90
2017-08-11T02:04:58.092Z,6.10
2017-08-11T02:07:24.859Z,6.00
2017-08-11T02:09:51.592Z,5.63
2017-08-11T02:12:18.338Z,5.57
2017-08-11T02:14:45.063Z,7.00
2017-08-11T02:17:11.838Z,6.37
2017-08-11T02:19:38.563Z,6.63
2017-08-11T02:22:05.290Z,6.90
2017-08-11T02:24:32.030Z,6.20
2017-08-11T02:26:58.746Z,5.50
2017-08-11T02:29:25.495Z,7.20
2017-08-11T02:31:52.256Z,6.07
2017-08-11T02:34:19.004Z,6.80
2017-08-11T02:36:45.719Z,5.80
2017-08-11T02:39:12.449Z,6.40
2017-08-11T02:44:53.094Z,6.90
2017-08-11T02:47:19.792Z,6.33
2017-08-11T02:49:46.492Z,6.77
2017-08-11T02:52:13.230Z,6.67
2017-08-11T02:54:39.934Z,7.00
2017-08-11T02:57:06.628Z,6.80
2017-08-11T02:59:33.350Z,6.90
2017-08-11T03:02:00.052Z,7.17
2017-08-11T03:04:26.758Z,6.13
2017-08-11T03:06:53.483Z,7.50
2017-08-11T03:09:20.177Z,6.50
2017-08-11T03:11:46.886Z,6.20
2017-08-11T03:14:13.600Z,6.37
2017-08-11T03:16:40.298Z,7.10
2017-08-11T03:19:07.003Z,6.00
2017-08-11T03:21:33.751Z,7.47
2017-08-11T03:24:00.471Z,7.97
2017-08-11T03:26:27.166Z,6.73
2017-08-11T03:28:53.896Z,7.77
2017-08-11T03:31:20.618Z,6.70
2017-08-11T03:33:47.364Z,6.33
2017-08-11T03:36:14.147Z,6.43
2017-08-11T03:38:40.848Z,6.90
2017-08-11T03:41:07.598Z,6.70
2017-08-11T03:43:34.331Z,7.27
2017-08-11T03:46:01.037Z,7.27
2017-08-11T03:48:27.748Z,7.53
2017-08-11T03:50:54.468Z,7.47
2017-08-11T03:53:21.196Z,6.60
2017-08-11T03:55:47.898Z,6.33
2017-08-11T03:58:14.619Z,8.00
2017-08-11T04:00:41.318Z,7.27
2017-08-11T04:03:08.022Z,7.13
2017-08-11T04:05:34.781Z,8.30
2017-08-11T04:08:01.496Z,6.20
2017-08-11T04:10:28.198Z,7.50
2017-08-11T04:12:54.958Z,7.50
2017-08-11T04:15:21.669Z,7.50
2017-08-11T04:17:48.385Z,7.40
2017-08-11T04:20:15.125Z,7.17
2017-08-11T04:22:41.829Z,6.80
2017-08-11T04:25:08.552Z,7.80
2017-08-11T04:27:35.276Z,6.57
2017-08-11T04:30:02.000Z,6.80
2017-08-11T04:32:28.715Z,7.70
2017-08-11T04:34:55.449Z,7.60
2017-08-11T04:37:22.147Z,6.57
2017-08-11T04:39:48.864Z,7.73
2017-08-11T04:42:15.604Z,7.23
2017-08-11T04:44:42.311Z,9.87
2017-08-11T04:47:09.034Z,7.27
2017-08-11T04:49:35.786Z,7.70
2017-08-11T04:52:02.511Z,7.40
2017-08-11T04:54:29.214Z,7.30
2017-08-11T04:56:55.949Z,6.90
2017-08-11T04:59:22.664Z,8.43
2017-08-11T05:01:49.379Z,7.47
2017-08-11T05:04:16.122Z,7.97
2017-08-11T05:06:42.827Z,8.50
2017-08-11T05:09:09.539Z,7.50
2017-08-11T05:11:36.257Z,8.33
2017-08-11T05:14:02.963Z,8.20
2017-08-11T05:16:29.686Z,7.40
2017-08-11T05:18:56.420Z,7.20
2017-08-11T05:21:23.149Z,8.00
2017-08-11T05:23:49.869Z,8.60
2017-08-11T05:26:16.643Z,7.70
2017-08-11T05:28:43.352Z,8.20
2017-08-11T05:31:10.070Z,7.67
2017-08-11T05:33:36.806Z,8.30
2017-08-11T05:36:03.510Z,7.60
2017-08-11T05:38:30.222Z,7.07
2017-08-11T05:40:56.955Z,7.90
2017-08-11T05:43:23.661Z,7.17
2017-08-11T05:45:50.376Z,7.00
2017-08-11T05:48:17.134Z,8.63
2017-08-11T05:50:43.852Z,7.83
2017-08-11T05:53:10.575Z,7.93
2017-08-11T05:55:37.303Z,7.63
2017-08-11T05:58:04.027Z,7.63
2017-08-11T06:00:30.739Z,7.67
2017-08-11T06:02:57.474Z,7.50
2017-08-11T06:05:24.209Z,8.50
2017-08-11T06:07:50.916Z,7.17
2017-08-11T06:10:17.667Z,8.13
2017-08-11T06:12:44.367Z,8.00
2017-08-11T06:15:11.131Z,8.30
2017-08-11T06:17:37.868Z,9.23
2017-08-11T06:20:04.588Z,8.50
2017-08-11T06:22:31.302Z,9.63
2017-08-11T06:24:58.039Z,9.87
2017-08-11T06:27:24.760Z,8.97
2017-08-11T06:29:51.493Z,10.00
2017-08-11T06:32:18.239Z,10.07
2017-08-11T06:34:44.942Z,10.30
2017-08-11T06:37:11.647Z,8.77
2017-08-11T06:39:38.415Z,9.63
2017-08-11T06:42:05.126Z,10.20
2017-08-11T06:44:31.834Z,11.50
2017-08-11T06:46:58.567Z,9.93
2017-08-11T06:49:25.313Z,10.50
2017-08-11T06:51:52.032Z,9.50
2017-08-11T06:54:18.779Z,10.73
2017-08-11T06:56:45.497Z,10.30
2017-08-11T06:59:12.210Z,10.33
2017-08-11T07:01:38.942Z,10.60
2017-08-11T07:04:05.657Z,10.63
2017-08-11T07:06:32.377Z,10.30
2017-08-11T07:08:59.110Z,10.17
2017-08-11T07:11:25.835Z,9.80
2017-08-11T07:13:52.549Z,9.43
2017-08-11T07:16:19.286Z,11.70
2017-08-11T07:18:46.012Z,10.37
2017-08-11T07:21:12.740Z,8.53
2017-08-11T07:23:39.486Z,8.57
2017-08-11T07:26:06.281Z,8.80
2017-08-11T07:28:32.986Z,8.77
2017-08-11T07:30:59.706Z,8.70
2017-08-11T07:33:26.418Z,9.30
2017-08-11T07:35:53.143Z,8.57
2017-08-11T07:38:19.913Z,8.00
2017-08-11T07:40:46.635Z,8.27
2017-08-11T07:43:13.358Z,6.17
2017-08-11T07:45:40.106Z,6.50
2017-08-11T07:48:06.906Z,7.33
2017-08-11T07:50:33.637Z,6.50
2017-08-11T07:53:00.392Z,7.07
2017-08-11T07:55:27.104Z,6.87
2017-08-11T07:57:53.800Z,7.17
2017-08-11T08:00:20.562Z,7.13
2017-08-11T08:02:47.267Z,7.10
2017-08-11T08:05:13.979Z,7.40
2017-08-11T08:07:40.790Z,7.50
2017-08-11T08:10:07.523Z,6.90
2017-08-11T08:12:34.319Z,7.53
2017-08-11T08:15:01.136Z,7.00
2017-08-11T08:17:27.846Z,6.93
2017-08-11T08:19:54.557Z,7.23
2017-08-11T08:22:21.386Z,7.63
2017-08-11T08:24:48.093Z,7.30
2017-08-11T08:27:14.871Z,6.90
2017-08-11T08:29:41.603Z,7.17
2017-08-11T08:32:08.330Z,7.33
2017-08-11T08:34:35.055Z,7.00
2017-08-11T08:37:01.794Z,7.27
2017-08-11T08:39:28.529Z,7.27
2017-08-11T08:41:55.244Z,6.23
2017-08-11T08:44:21.978Z,6.90
2017-08-11T08:46:48.708Z,7.20
2017-08-11T08:49:15.416Z,8.00
2017-08-11T08:51:42.175Z,7.50
2017-08-11T08:54:08.970Z,7.70
2017-08-11T08:56:35.677Z,7.50
2017-08-11T08:59:02.482Z,8.60
2017-08-11T09:01:29.202Z,7.27
2017-08-11T09:03:55.935Z,7.63
2017-08-11T09:06:22.681Z,8.57
2017-08-11T09:08:49.421Z,7.80
2017-08-11T09:11:16.115Z,7.63
2017-08-11T09:13:42.859Z,8.03
2017-08-11T09:16:09.562Z,7.70
2017-08-11T09:18:36.275Z,8.00
2017-08-11T09:21:03.007Z,7.40
2017-08-11T09:23:29.779Z,8.10
2017-08-11T09:26:02.409Z,7.93
2017-08-11T09:28:34.977Z,7.77
2017-08-11T09:31:07.488Z,7.70
2017-08-11T09:33:39.872Z,8.43
2017-08-11T09:36:24.239Z,7.67
2017-08-11T09:38:51.011Z,8.13
2017-08-11T09:41:17.709Z,7.53
2017-08-11T09:43:44.408Z,7.50
2017-08-11T09:46:11.115Z,8.60
2017-08-11T09:48:37.813Z,8.20
2017-08-11T09:51:04.512Z,8.30
2017-08-11T09:53:31.260Z,9.27
2017-08-11T09:55:57.963Z,8.60
2017-08-11T09:58:24.672Z,8.90
2017-08-11T10:00:51.425Z,9.20
2017-08-11T10:03:18.170Z,7.53
2017-08-11T10:05:44.874Z,8.43
2017-08-11T10:08:11.708Z,8.30
2017-08-11T10:10:38.443Z,9.63
2017-08-11T10:13:05.151Z,9.03
2017-08-11T10:15:31.885Z,9.00
2017-08-11T10:17:58.580Z,8.90
2017-08-11T10:20:25.294Z,9.17
2017-08-11T10:22:52.046Z,9.20
2017-08-11T10:25:18.752Z,8.50
2017-08-11T10:27:45.470Z,8.63
2017-08-11T10:30:12.270Z,9.20
2017-08-11T10:32:38.974Z,8.60
2017-08-11T10:35:05.718Z,10.03
2017-08-11T10:37:32.451Z,10.20
2017-08-11T10:39:59.145Z,8.80
2017-08-11T10:42:25.874Z,10.33
2017-08-11T10:44:52.601Z,9.77
2017-08-11T10:47:19.357Z,9.33
2017-08-11T10:49:46.071Z,9.10
2017-08-11T10:52:12.838Z,10.00
2017-08-11T10:54:39.577Z,10.30
2017-08-11T10:57:06.293Z,10.27
2017-08-11T10:59:33.059Z,10.53
2017-08-11T11:01:59.785Z,8.63
2017-08-11T11:04:26.505Z,10.80
2017-08-11T11:06:53.353Z,9.50
2017-08-11T11:09:20.059Z,9.63
2017-08-11T11:11:46.779Z,9.60
2017-08-11T11:14:13.584Z,9.00
2017-08-11T11:16:40.288Z,9.37
2017-08-11T11:19:07.002Z,8.63
2017-08-11T11:21:33.750Z,8.80
2017-08-11T11:24:00.535Z,9.23
2017-08-11T11:26:27.227Z,8.83
2017-08-11T11:28:53.955Z,9.10
2017-08-11T11:31:20.678Z,9.50
2017-08-11T11:33:47.426Z,9.47
2017-08-11T11:36:14.190Z,9.60
2017-08-11T11:38:41.040Z,9.17
2017-08-11T11:41:07.778Z,9.67
2017-08-11T11:43:34.625Z,10.43
2017-08-11T11:46:01.368Z,9.17
2017-08-11T11:48:28.081Z,9.47
2017-08-11T11:50:54.901Z,9.73
2017-08-11T11:53:21.649Z,10.17
2017-08-11T11:55:48.375Z,10.83
2017-08-11T11:58:15.225Z,9.60
2017-08-11T12:00:42.111Z,9.40
2017-08-11T12:03:08.904Z,10.50
2017-08-11T12:05:35.639Z,10.03
2017-08-11T12:08:02.400Z,10.63
2017-08-11T12:10:29.215Z,10.43
2017-08-11T12:12:55.971Z,9.47
2017-08-11T12:15:22.725Z,9.97
2017-08-11T12:17:49.458Z,9.47
2017-08-11T12:20:16.271Z,10.00
2017-08-11T12:22:42.987Z,8.40
2017-08-11T12:25:09.707Z,9.40
2017-08-11T12:27:36.470Z,9.33
2017-08-11T12:30:03.275Z,10.23
2017-08-11T12:32:30.119Z,9.90
2017-08-11T12:34:56.924Z,9.77
2017-08-11T12:37:23.710Z,9.97
2017-08-11T12:39:50.426Z,9.60
2017-08-11T12:42:17.168Z,9.60
2017-08-11T12:44:43.928Z,10.10
2017-08-11T12:47:10.701Z,9.00
2017-08-11T12:49:37.430Z,9.63
2017-08-11T12:52:04.206Z,8.80
2017-08-11T12:54:31.012Z,9.47
2017-08-11T12:56:57.782Z,9.30
2017-08-11T12:59:24.575Z,9.00
2017-08-11T13:01:51.381Z,9.50
2017-08-11T13:04:18.131Z,9.50
2017-08-11T13:06:44.861Z,10.30
2017-08-11T13:09:11.584Z,8.30
2017-08-11T13:11:38.345Z,9.43
2017-08-11T13:14:05.151Z,10.13
2017-08-11T13:16:31.946Z,10.30
2017-08-11T13:18:58.726Z,9.37
2017-08-11T13:21:25.509Z,8.60
2017-08-11T13:23:52.202Z,8.47
2017-08-11T13:26:18.949Z,8.87
2017-08-11T13:28:45.678Z,9.93
2017-08-11T13:31:12.370Z,8.40
2017-08-11T13:33:39.139Z,8.37
2017-08-11T13:36:05.857Z,8.47
2017-08-11T13:38:32.572Z,8.20
2017-08-11T13:40:59.323Z,8.97
2017-08-11T13:43:26.027Z,7.87
2017-08-11T13:45:52.726Z,8.60
2017-08-11T13:48:19.442Z,8.63
2017-08-11T13:50:46.159Z,9.00
2017-08-11T13:53:12.875Z,8.10
2017-08-11T13:55:39.591Z,8.23
2017-08-11T13:58:06.295Z,8.20
2017-08-11T14:00:33.019Z,7.30
2017-08-11T14:02:59.804Z,8.37
2017-08-11T14:05:26.555Z,8.10
2017-08-11T14:07:53.266Z,7.87
2017-08-11T14:10:20.011Z,7.83
2017-08-11T14:12:46.713Z,7.57
2017-08-11T14:15:13.431Z,8.30
2017-08-11T14:17:40.179Z,8.03
2017-08-11T14:20:06.884Z,8.17
2017-08-11T14:22:33.583Z,7.90
2017-08-11T14:25:00.328Z,7.70
2017-08-11T14:27:27.019Z,8.33
2017-08-11T14:29:53.747Z,8.37
2017-08-11T14:32:20.473Z,7.90
2017-08-11T14:34:47.202Z,7.10
2017-08-11T14:37:13.921Z,8.30
2017-08-11T14:39:40.642Z,8.27
2017-08-11T14:42:07.346Z,7.87
2017-08-11T14:44:34.086Z,8.37
2017-08-11T14:47:00.851Z,7.47
2017-08-11T14:49:27.574Z,7.20
2017-08-11T14:51:54.277Z,6.80
2017-08-11T14:54:21.047Z,7.87
2017-08-11T14:56:47.763Z,7.83
2017-08-11T14:59:14.487Z,7.20
2017-08-11T15:01:41.224Z,7.83
2017-08-11T15:04:07.944Z,7.13
2017-08-11T15:06:34.631Z,6.80
2017-08-11T15:09:01.393Z,7.07
2017-08-11T15:11:28.098Z,6.90
2017-08-11T15:13:54.813Z,7.20
2017-08-11T15:16:21.563Z,7.30
2017-08-11T15:18:48.586Z,6.80
2017-08-11T15:21:15.288Z,6.77
2017-08-11T15:23:42.006Z,6.43
2017-08-11T15:26:08.713Z,7.50
2017-08-11T15:28:35.436Z,7.63
2017-08-11T15:31:02.216Z,6.70
2017-08-11T15:33:28.924Z,7.13
2017-08-11T15:35:55.637Z,7.40
2017-08-11T15:38:22.385Z,6.80
2017-08-11T15:40:49.115Z,7.03
2017-08-11T15:43:15.928Z,6.37
2017-08-11T15:45:42.667Z,7.37
2017-08-11T15:48:09.372Z,6.43
2017-08-11T15:50:36.152Z,7.27
2017-08-11T15:53:02.870Z,7.97
2017-08-11T15:55:29.587Z,6.93
2017-08-11T15:57:56.314Z,7.03
2017-08-11T16:00:23.078Z,7.33
2017-08-11T16:02:49.789Z,8.30
2017-08-11T16:05:16.544Z,7.27
2017-08-11T16:07:43.434Z,7.80
2017-08-11T16:10:10.159Z,7.50
2017-08-11T16:12:36.864Z,7.20
2017-08-11T16:15:03.643Z,7.60
2017-08-11T16:17:30.347Z,6.77
2017-08-11T16:19:57.085Z,6.33
2017-08-11T16:22:23.824Z,6.77
2017-08-11T16:24:50.531Z,6.23
2017-08-11T16:27:17.235Z,6.33
2017-08-11T16:29:43.971Z,7.10
2017-08-11T16:32:10.688Z,7.80
2017-08-11T16:34:37.399Z,6.63
2017-08-11T16:37:04.161Z,6.40
2017-08-11T16:39:30.871Z,6.77
2017-08-11T16:41:57.591Z,6.50
2017-08-11T16:44:24.338Z,7.33
2017-08-11T16:46:51.046Z,6.70
2017-08-11T16:49:17.787Z,6.60
2017-08-11T16:51:44.522Z,7.30
2017-08-11T16:54:11.220Z,7.00
2017-08-11T16:56:37.916Z,7.13
2017-08-11T16:59:04.650Z,7.17
2017-08-11T17:01:31.403Z,7.03
2017-08-11T17:03:58.102Z,8.07
2017-08-11T17:06:24.853Z,10.50
2017-08-11T17:08:51.558Z,7.80
2017-08-11T17:11:18.306Z,10.60
2017-08-11T17:13:45.091Z,7.10
2017-08-11T17:16:11.802Z,5.97
2017-08-11T17:18:38.507Z,8.83
2017-08-11T17:21:05.254Z,11.07
2017-08-11T17:23:31.971Z,9.67
2017-08-11T17:25:58.683Z,8.03
2017-08-11T17:28:25.420Z,7.23
2017-08-11T17:30:52.136Z,8.90
2017-08-11T17:33:18.851Z,8.70
2017-08-11T17:35:45.597Z,7.50
2017-08-11T17:38:12.328Z,8.20
2017-08-11T17:40:39.030Z,7.20
2017-08-11T17:43:05.752Z,7.03
2017-08-11T17:45:32.472Z,7.50
2017-08-11T17:47:59.188Z,6.70
2017-08-11T17:50:25.948Z,6.83
2017-08-11T17:52:52.664Z,6.37
2017-08-11T17:55:19.380Z,7.03
2017-08-11T17:57:46.127Z,7.07
2017-08-11T18:00:12.860Z,7.00
2017-08-11T18:02:39.618Z,6.40
2017-08-11T18:05:06.363Z,7.60
2017-08-11T18:07:33.091Z,7.47
2017-08-11T18:09:59.806Z,7.20
2017-08-11T18:12:26.548Z,6.80
2017-08-11T18:14:53.246Z,6.50
2017-08-11T18:17:19.957Z,6.40
2017-08-11T18:19:46.678Z,7.30
2017-08-11T18:22:13.400Z,7.10
2017-08-11T18:24:40.124Z,6.57
2017-08-11T18:27:06.971Z,6.67
2017-08-11T18:29:34.005Z,6.33
2017-08-11T18:32:00.819Z,7.43
2017-08-11T18:34:27.554Z,6.03
2017-08-11T18:36:54.314Z,6.37
2017-08-11T18:39:21.028Z,7.70
2017-08-11T18:41:47.823Z,6.83
2017-08-11T18:44:14.522Z,6.63
2017-08-11T18:46:41.275Z,6.37
2017-08-11T18:49:08.104Z,7.55
2017-08-11T18:51:35.163Z,6.73
2017-08-11T18:54:01.999Z,7.30
2017-08-11T18:56:28.843Z,6.57
2017-08-11T18:58:56.094Z,7.73
2017-08-11T19:01:22.840Z,7.40
2017-08-11T19:03:50.600Z,7.80
2017-08-11T19:06:17.361Z,7.62
2017-08-11T19:08:44.252Z,7.70
2017-08-11T19:11:11.062Z,6.33
2017-08-11T19:22:34.240Z,6.20
2017-08-11T19:25:01.274Z,5.53
2017-08-11T19:27:28.490Z,5.37
2017-08-11T19:29:55.487Z,4.17
2017-08-11T19:32:23.223Z,5.00
2017-08-11T19:34:50.138Z,5.50
2017-08-11T19:37:17.265Z,5.00
2017-08-11T19:39:44.335Z,4.73
2017-08-11T19:42:11.470Z,5.47
2017-08-11T19:44:38.324Z,4.43
2017-08-11T19:47:05.513Z,4.30
2017-08-11T19:49:32.525Z,3.20
2017-08-11T19:51:59.712Z,4.30
2017-08-11T19:54:26.753Z,4.37
2017-08-11T19:56:54.863Z,5.07
2017-08-11T19:59:21.703Z,4.93
2017-08-11T20:01:48.546Z,5.40
2017-08-11T20:04:15.622Z,5.43
2017-08-11T20:06:42.763Z,4.80
2017-08-11T20:09:10.173Z,6.10
2017-08-11T20:11:37.248Z,6.27
2017-08-11T20:14:04.135Z,6.70
2017-08-11T20:16:31.355Z,5.57
2017-08-11T20:18:58.276Z,5.47
2017-08-11T20:21:25.044Z,5.20
2017-08-11T20:23:52.095Z,5.57
2017-08-11T20:26:19.055Z,6.13
2017-08-11T20:28:46.019Z,7.80
2017-08-11T20:31:12.771Z,6.60
2017-08-11T20:33:39.580Z,7.37
2017-08-11T20:36:06.433Z,7.50
2017-08-11T20:38:33.268Z,6.90
2017-08-11T20:41:00.019Z,6.47
2017-08-11T20:43:26.834Z,6.77
2017-08-11T20:45:53.651Z,6.60
2017-08-11T20:48:20.405Z,6.80
2017-08-11T20:50:47.166Z,7.40
2017-08-11T20:53:13.906Z,7.40
2017-08-11T20:55:40.730Z,7.27
2017-08-11T20:58:07.480Z,6.27
2017-08-11T21:00:34.302Z,6.70
2017-08-11T21:03:01.070Z,6.50
2017-08-11T21:05:28.074Z,6.00
2017-08-11T21:07:54.836Z,5.50
2017-08-11T21:10:21.578Z,5.27
2017-08-11T21:12:48.416Z,5.40
2017-08-11T21:15:15.164Z,5.10
2017-08-11T21:17:41.934Z,4.97
2017-08-11T21:20:08.671Z,4.60
2017-08-11T21:22:35.482Z,5.27
2017-08-11T21:25:02.297Z,4.60
2017-08-11T21:27:29.107Z,4.13
2017-08-11T21:29:55.932Z,4.93
2017-08-11T21:32:22.901Z,4.40
2017-08-11T21:34:49.688Z,3.50
2017-08-11T21:37:16.512Z,4.00
2017-08-11T21:39:44.206Z,3.70
2017-08-11T21:42:11.408Z,3.63
2017-08-11T21:44:38.159Z,4.47
2017-08-11T21:47:04.918Z,4.27
2017-08-11T21:49:31.744Z,4.40
2017-08-11T21:51:58.571Z,4.13
2017-08-11T21:54:25.300Z,4.23
2017-08-11T21:56:52.132Z,4.50
2017-08-11T21:59:18.864Z,4.50
2017-08-11T22:01:45.897Z,4.17
2017-08-11T22:04:12.632Z,3.80
2017-08-11T22:06:39.365Z,4.00
2017-08-11T22:09:06.113Z,4.27
2017-08-11T22:11:32.879Z,5.73
2017-08-11T22:13:59.667Z,4.70
2017-08-11T22:16:26.387Z,4.47
2017-08-11T22:18:53.135Z,4.27
2017-08-11T22:21:19.854Z,4.80
2017-08-11T22:23:46.561Z,4.30
2017-08-11T22:26:13.284Z,4.60
2017-08-11T22:28:40.012Z,4.57
2017-08-11T22:31:06.831Z,4.70
2017-08-11T22:33:33.616Z,4.37
2017-08-11T22:36:00.329Z,3.70
2017-08-11T22:38:27.080Z,3.47
2017-08-11T22:40:53.829Z,3.63
2017-08-11T22:43:20.665Z,4.13
2017-08-11T22:45:47.409Z,3.70
2017-08-11T22:48:14.164Z,3.97
2017-08-11T22:50:40.988Z,3.50
2017-08-11T22:53:07.755Z,4.23
2017-08-11T22:55:34.483Z,3.70
2017-08-11T22:58:01.220Z,3.60
2017-08-11T23:00:27.930Z,3.03
2017-08-11T23:02:54.663Z,4.07
2017-08-11T23:05:21.526Z,3.27
2017-08-11T23:07:48.250Z,3.23
2017-08-11T23:10:14.985Z,3.20
2017-08-11T23:12:41.714Z,2.80
2017-08-11T23:15:08.465Z,3.40
2017-08-11T23:17:35.214Z,3.13
2017-08-11T23:20:01.946Z,3.03
2017-08-11T23:22:28.730Z,3.13
2017-08-11T23:24:55.448Z,3.23
2017-08-11T23:27:22.166Z,2.83
2017-08-11T23:29:48.978Z,3.00
2017-08-11T23:32:15.722Z,3.30
2017-08-11T23:34:42.438Z,2.93
2017-08-11T23:37:09.164Z,3.13
2017-08-11T23:39:35.906Z,2.60
2017-08-11T23:42:02.624Z,2.13
2017-08-11T23:44:29.348Z,2.47
2017-08-11T23:46:56.087Z,3.00
2017-08-11T23:49:22.884Z,2.00
2017-08-11T23:51:49.611Z,2.30
2017-08-11T23:54:16.334Z,2.53
2017-08-11T23:56:43.048Z,2.20
2017-08-11T23:59:09.770Z,2.13
